createdAt,value
2019-04-26T07:24:09.003Z,2.60
2019-04-26T07:25:09.008Z,3.90
2019-04-26T07:26:08.943Z,4.50
2019-04-26T07:27:09.001Z,4.80
2019-04-26T07:28:11.830Z,3.90
2019-04-26T07:29:09.319Z,4.00
2019-04-26T07:30:09.857Z,4.10
2019-04-26T07:31:08.818Z,4.00
2019-04-26T07:32:09.533Z,4.00
2019-04-26T07:33:08.792Z,3.80
2019-04-26T07:34:09.489Z,4.60
2019-04-26T07:35:08.800Z,7.00
2019-04-26T07:36:09.732Z,4.20
2019-04-26T07:37:08.874Z,5.10
2019-04-26T07:38:09.025Z,4.10
2019-04-26T07:39:17.707Z,3.90
2019-04-26T07:40:09.209Z,4.10
2019-04-26T07:41:09.310Z,4.30
2019-04-26T07:42:09.480Z,4.70
2019-04-26T07:43:08.581Z,3.70
2019-04-26T07:44:09.715Z,5.20
2019-04-26T07:45:08.548Z,4.20
2019-04-26T07:46:08.528Z,4.00
2019-04-26T07:47:08.603Z,3.90
2019-04-26T07:48:09.486Z,3.80
2019-04-26T07:49:08.492Z,4.50
2019-04-26T07:50:09.396Z,4.00
2019-04-26T07:51:09.422Z,3.50
2019-04-26T07:52:08.555Z,4.00
2019-04-26T07:53:09.281Z,4.50
2019-04-26T07:54:08.977Z,4.50
2019-04-26T07:55:08.695Z,3.70
2019-04-26T07:56:09.298Z,3.40
2019-04-26T07:57:08.718Z,3.60
2019-04-26T07:58:08.976Z,3.80
2019-04-26T07:59:08.811Z,4.10
2019-04-26T08:00:08.731Z,3.70
2019-04-26T08:01:08.250Z,3.90
2019-04-26T08:02:09.016Z,3.70
2019-04-26T08:03:08.723Z,4.00
2019-04-26T08:04:09.374Z,5.00
2019-04-26T08:05:09.406Z,4.50
2019-04-26T08:06:08.175Z,5.40
2019-04-26T08:07:08.257Z,3.50
2019-04-26T08:08:08.630Z,4.60
2019-04-26T08:09:08.108Z,5.10
2019-04-26T08:10:08.092Z,3.60
2019-04-26T08:11:08.665Z,3.60
2019-04-26T08:12:08.110Z,5.60
2019-04-26T08:13:08.107Z,4.20
2019-04-26T08:14:08.538Z,3.70
2019-04-26T08:15:08.991Z,3.40
2019-04-26T08:16:08.624Z,4.10
2019-04-26T08:17:08.220Z,5.90
2019-04-26T08:37:58.782Z,1.90
2019-04-26T08:38:58.745Z,3.70
2019-04-26T08:39:59.426Z,3.80
2019-04-26T08:41:00.481Z,4.20
2019-04-26T08:41:58.689Z,3.50
2019-04-26T08:42:58.762Z,3.80
2019-04-26T08:43:59.764Z,3.40
2019-04-26T08:44:58.627Z,3.30
2019-04-26T08:46:03.161Z,3.60
2019-04-26T08:46:58.590Z,7.80
2019-04-26T08:47:58.590Z,3.90
2019-04-26T08:49:02.117Z,4.50
2019-04-26T08:49:58.532Z,3.80
2019-04-26T08:50:58.515Z,3.50
2019-04-26T08:51:58.498Z,3.40
2019-04-26T08:52:58.477Z,3.40
2019-04-26T08:53:58.474Z,4.80
2019-04-26T08:54:58.441Z,3.70
2019-04-26T08:55:58.425Z,3.90
2019-04-26T08:56:58.404Z,3.30
2019-04-26T08:57:58.394Z,3.40
2019-04-26T08:58:58.384Z,3.20
2019-04-26T08:59:58.353Z,3.80
2019-04-26T09:00:58.331Z,3.30
2019-04-26T09:01:58.315Z,3.70
2019-04-26T09:02:58.331Z,3.10
2019-04-26T09:03:58.296Z,4.10
2019-04-26T09:04:58.261Z,4.50
2019-04-26T09:05:58.243Z,3.50
2019-04-26T09:06:58.225Z,3.60
2019-04-26T09:07:58.926Z,4.20
2019-04-26T09:08:58.211Z,3.90
2019-04-26T09:10:01.542Z,3.50
2019-04-26T09:10:58.162Z,4.90
2019-04-26T09:11:59.848Z,3.30
2019-04-26T09:12:58.126Z,3.40
2019-04-26T09:13:58.104Z,3.40
2019-04-26T09:14:58.100Z,4.50
2019-04-26T09:15:58.106Z,2.90
2019-04-26T09:16:58.052Z,3.40
2019-04-26T09:17:58.035Z,3.20
2019-04-26T09:18:59.756Z,3.10
2019-04-26T09:19:58.297Z,3.40
2019-04-26T09:20:57.984Z,4.90
2019-04-26T09:22:02.885Z,4.20
2019-04-26T09:23:03.885Z,3.30
2019-04-26T09:23:57.933Z,3.10
2019-04-26T09:24:59.450Z,4.30
2019-04-26T09:26:00.336Z,3.50
2019-04-26T09:26:57.877Z,3.00
2019-04-26T09:27:58.992Z,3.60
2019-04-26T09:28:57.845Z,3.50
2019-04-26T09:30:00.520Z,3.40
2019-04-26T09:30:57.817Z,4.10
2019-04-26T09:31:57.802Z,3.80
2019-04-26T09:32:58.365Z,3.20
2019-04-26T09:33:57.764Z,3.50
2019-04-26T09:34:57.771Z,2.90
2019-04-26T09:35:57.730Z,3.40
2019-04-26T09:36:57.712Z,3.50
2019-04-26T09:37:57.697Z,3.30
2019-04-26T09:38:57.679Z,3.30
2019-04-26T09:40:09.396Z,3.10
2019-04-26T09:41:00.460Z,3.00
2019-04-26T09:42:01.082Z,2.90
2019-04-26T09:42:59.402Z,3.70
2019-04-26T09:43:58.893Z,3.60
2019-04-26T09:44:57.582Z,3.30
2019-04-26T09:45:57.577Z,2.90
2019-04-26T09:46:57.547Z,2.70
2019-04-26T09:47:57.530Z,2.80
2019-04-26T09:48:57.515Z,3.00
2019-04-26T09:49:57.505Z,2.70
2019-04-26T09:50:57.545Z,3.90
2019-04-26T09:51:57.465Z,3.00
2019-04-26T09:52:58.277Z,3.00
2019-04-26T09:53:57.431Z,2.70
2019-04-26T09:54:57.417Z,4.00
2019-04-26T09:55:57.421Z,3.20
2019-04-26T09:56:57.392Z,3.60
2019-04-26T10:02:06.264Z,2.20
2019-04-26T10:03:09.396Z,3.10
2019-04-26T10:04:06.210Z,3.10
2019-04-26T10:05:08.073Z,3.80
2019-04-26T10:06:08.187Z,4.40
2019-04-26T10:07:06.159Z,3.00
2019-04-26T10:14:46.369Z,3.90
2019-04-26T10:15:43.658Z,2.90
2019-04-26T10:16:43.654Z,3.40
2019-04-26T10:17:46.437Z,2.50
2019-04-26T10:18:43.603Z,2.60
2019-04-26T10:19:43.583Z,2.60
2019-04-26T10:20:43.569Z,3.90
2019-04-26T10:25:38.059Z,1.30
2019-04-26T10:26:38.027Z,2.20
2019-04-26T10:27:40.673Z,3.90
2019-04-26T10:28:37.991Z,3.50
2019-04-26T10:29:37.971Z,3.20
2019-04-26T10:30:38.421Z,2.50
2019-04-26T10:31:37.936Z,3.00
2019-04-26T10:32:37.939Z,2.40
2019-04-26T10:33:37.932Z,2.40
2019-04-26T10:34:37.885Z,2.90
2019-04-26T10:35:37.866Z,2.40
2019-04-26T10:36:37.855Z,2.70
2019-04-26T10:37:39.542Z,3.20
2019-04-26T10:38:37.835Z,2.50
2019-04-26T10:39:37.801Z,2.90
2019-04-26T10:40:37.778Z,2.60
2019-04-26T10:41:37.762Z,3.40
2019-04-26T10:42:37.747Z,2.50
2019-04-26T10:43:37.742Z,2.50
2019-04-26T10:44:39.826Z,2.40
2019-04-26T10:45:37.695Z,2.70
2019-04-26T10:46:37.678Z,2.60
2019-04-26T10:47:38.435Z,2.70
2019-04-26T10:48:37.665Z,2.50
2019-04-26T10:49:37.635Z,2.20
2019-04-26T10:50:37.616Z,3.30
2019-04-26T10:51:38.681Z,2.30
2019-04-26T10:52:37.592Z,2.00
2019-04-26T10:53:37.605Z,3.10
2019-04-26T10:54:41.104Z,2.50
2019-04-26T10:55:37.542Z,2.10
2019-04-26T10:56:37.526Z,2.10
2019-04-26T10:57:37.507Z,3.60
2019-04-26T10:58:37.824Z,3.30
2019-04-26T10:59:39.743Z,2.50
2019-04-26T11:00:37.474Z,2.20
2019-04-26T11:01:37.446Z,3.50
2019-04-26T11:02:37.431Z,2.10
2019-04-26T11:03:37.418Z,1.80
2019-04-26T11:04:41.298Z,3.60
2019-04-26T11:05:37.385Z,3.20
2019-04-26T11:06:37.368Z,2.20
2019-04-26T11:07:37.353Z,2.30
2019-04-26T11:08:37.340Z,2.30
2019-04-26T11:09:37.343Z,2.20
2019-04-26T11:10:48.095Z,2.40
2019-04-26T11:11:37.301Z,2.40
2019-04-26T11:12:39.611Z,2.40
2019-04-26T11:13:37.262Z,2.80
2019-04-26T11:14:37.249Z,3.80
2019-04-26T11:15:37.250Z,4.20
2019-04-26T11:16:40.916Z,4.40
2019-04-26T11:17:37.201Z,2.70
2019-04-26T11:18:37.189Z,2.90
2019-04-26T11:19:37.174Z,2.80
2019-04-26T11:20:37.175Z,3.30
2019-04-26T11:21:37.143Z,2.00
2019-04-26T11:22:37.648Z,2.90
2019-04-26T11:23:37.117Z,2.50
2019-04-26T11:24:37.099Z,2.80
2019-04-26T11:25:37.105Z,3.10
2019-04-26T11:26:37.069Z,3.60
2019-04-26T11:27:40.119Z,2.70
2019-04-26T11:28:37.037Z,2.80
2019-04-26T11:29:37.021Z,1.80
2019-04-26T11:30:37.020Z,2.70
2019-04-26T11:31:37.011Z,2.20
2019-04-26T11:32:38.177Z,2.70
2019-04-26T11:33:44.756Z,2.70
2019-04-26T11:34:36.945Z,3.70
2019-04-26T11:35:37.054Z,2.40
2019-04-26T11:36:37.668Z,3.20
2019-04-26T11:37:36.906Z,2.80
2019-04-26T11:38:36.884Z,2.20
2019-04-26T11:39:40.590Z,2.40
2019-04-26T11:40:36.853Z,2.20
2019-04-26T11:41:37.629Z,2.70
2019-04-26T11:42:36.820Z,4.90
2019-04-26T11:43:36.804Z,3.20
2019-04-26T11:44:36.792Z,3.20
2019-04-26T11:45:36.780Z,2.40
2019-04-26T11:46:44.563Z,2.50
2019-04-26T11:47:37.155Z,2.50
2019-04-26T11:48:36.729Z,2.50
2019-04-26T11:49:37.406Z,2.30
2019-04-26T11:50:36.698Z,2.20
2019-04-26T11:51:36.699Z,3.40
2019-04-26T11:52:37.412Z,3.30
2019-04-26T11:53:40.497Z,2.70
2019-04-26T11:54:36.639Z,3.00
2019-04-26T11:55:36.623Z,2.80
2019-04-26T11:56:37.655Z,3.50
2019-04-26T11:57:36.593Z,2.90
2019-04-26T11:58:36.581Z,3.20
2019-04-26T11:59:36.562Z,2.20
2019-04-26T12:00:36.548Z,4.70
2019-04-26T12:01:36.845Z,2.40
2019-04-26T12:02:36.524Z,3.30
2019-04-26T12:03:36.507Z,3.80
2019-04-26T12:04:36.492Z,4.20
2019-04-26T12:05:36.475Z,2.40
2019-04-26T12:06:36.460Z,4.90
2019-04-26T12:07:36.458Z,4.30
2019-04-26T12:08:36.432Z,3.30
2019-04-26T12:09:36.416Z,2.80
2019-04-26T12:10:36.405Z,3.00
2019-04-26T12:11:48.759Z,2.90
2019-04-26T12:12:36.386Z,2.30
2019-04-26T12:13:36.373Z,2.60
2019-04-26T12:14:36.343Z,3.10
2019-04-26T12:15:39.003Z,2.40
2019-04-26T12:16:47.021Z,4.20
2019-04-26T12:17:36.836Z,3.20
2019-04-26T12:18:36.288Z,2.30
2019-04-26T12:19:36.267Z,4.70
2019-04-26T12:20:36.255Z,3.80
2019-04-26T12:21:36.287Z,3.00
2019-04-26T12:22:39.294Z,2.60
2019-04-26T12:23:43.783Z,2.70
2019-04-26T12:24:36.198Z,2.90
2019-04-26T12:25:48.090Z,2.10
2019-04-26T12:26:46.240Z,2.30
2019-04-26T12:27:43.921Z,3.10
2019-04-26T12:28:39.564Z,2.30
2019-04-26T12:29:36.123Z,2.60
2019-04-26T12:30:36.108Z,2.70
2019-04-26T12:31:36.127Z,1.90
2019-04-26T12:32:36.077Z,3.60
2019-04-26T12:33:46.401Z,2.60
2019-04-26T12:34:36.048Z,3.10
2019-04-26T12:35:36.033Z,2.70
2019-04-26T12:36:36.018Z,2.20
2019-04-26T12:37:36.022Z,2.30
2019-04-26T12:38:35.987Z,2.70
2019-04-26T12:39:36.595Z,5.10
2019-04-26T12:40:35.960Z,2.80
2019-04-26T12:41:40.430Z,2.90
2019-04-26T12:42:35.941Z,3.00
2019-04-26T12:43:35.914Z,3.40
2019-04-26T12:44:36.813Z,2.10
2019-04-26T12:45:35.883Z,4.90
2019-04-26T12:46:35.869Z,3.90
2019-04-26T12:47:38.635Z,2.90
2019-04-26T12:48:35.842Z,2.30
2019-04-26T12:49:35.826Z,2.30
2019-04-26T12:50:37.764Z,3.60
2019-04-26T12:51:38.182Z,3.00
2019-04-26T12:52:37.479Z,2.70
2019-04-26T12:53:35.783Z,4.30
2019-04-26T12:54:39.066Z,2.50
2019-04-26T12:55:35.739Z,3.10
2019-04-26T12:56:35.726Z,3.40
2019-04-26T12:57:36.525Z,2.70
2019-04-26T12:58:35.710Z,2.70
2019-04-26T12:59:43.955Z,4.00
2019-04-26T13:00:37.591Z,4.10
2019-04-26T13:01:35.653Z,2.40
2019-04-26T13:02:35.641Z,2.10
2019-04-26T13:03:35.639Z,3.50
2019-04-26T13:04:36.599Z,3.10
2019-04-26T13:05:35.604Z,2.10
2019-04-26T13:06:35.583Z,2.10
2019-04-26T13:07:35.568Z,2.40
2019-04-26T13:08:35.575Z,3.80
2019-04-26T13:09:35.541Z,2.70
2019-04-26T13:10:36.892Z,2.20
2019-04-26T13:11:35.512Z,1.80
2019-04-26T13:12:35.500Z,3.60
2019-04-26T13:13:35.487Z,2.10
2019-04-26T13:14:38.725Z,3.40
2019-04-26T13:15:35.462Z,2.90
2019-04-26T13:16:35.449Z,2.90
2019-04-26T13:17:36.108Z,3.40
2019-04-26T13:18:35.423Z,2.80
2019-04-26T13:19:35.442Z,3.40
2019-04-26T13:20:35.460Z,1.40
2019-04-26T13:21:37.256Z,2.90
2019-04-26T13:22:45.419Z,5.00
2019-04-26T13:23:35.367Z,2.70
2019-04-26T13:24:35.613Z,3.00
2019-04-26T13:25:40.536Z,3.00
2019-04-26T13:26:36.432Z,4.90
2019-04-26T13:27:35.301Z,2.70
2019-04-26T13:28:35.286Z,1.90
2019-04-26T13:29:35.273Z,3.70
2019-04-26T13:30:35.277Z,2.10
2019-04-26T13:31:35.260Z,2.40
2019-04-26T13:32:35.233Z,4.20
2019-04-26T13:33:35.219Z,2.40
2019-04-26T13:34:37.280Z,2.10
2019-04-26T13:35:35.196Z,2.20
2019-04-26T13:36:35.195Z,2.50
2019-04-26T13:37:35.700Z,2.70
2019-04-26T13:38:35.155Z,3.90
2019-04-26T13:39:35.143Z,1.40
2019-04-26T13:40:35.131Z,2.90
2019-04-26T13:41:38.600Z,4.40
2019-04-26T13:42:35.105Z,4.40
2019-04-26T13:43:35.094Z,2.10
2019-04-26T13:44:35.693Z,1.80
2019-04-26T13:45:35.067Z,2.00
2019-04-26T13:46:35.067Z,2.30
2019-04-26T13:47:35.048Z,3.50
2019-04-26T13:48:35.032Z,2.50
2019-04-26T13:49:35.910Z,3.00
2019-04-26T13:50:35.894Z,4.20
2019-04-26T13:51:35.006Z,2.10
2019-04-26T13:52:34.983Z,3.30
2019-04-26T13:53:34.978Z,2.60
2019-04-26T13:54:35.859Z,2.70
2019-04-26T13:55:35.877Z,2.60
2019-04-26T13:56:36.001Z,2.10
2019-04-26T13:57:35.896Z,1.80
2019-04-26T13:58:35.860Z,4.00
2019-04-26T13:59:34.942Z,3.10
2019-04-26T14:00:35.882Z,2.10
2019-04-26T14:01:34.925Z,3.00
2019-04-26T14:02:34.900Z,3.20
2019-04-26T14:03:35.422Z,3.40
2019-04-26T14:04:37.176Z,2.00
2019-04-26T14:05:34.836Z,2.50
2019-04-26T14:06:34.893Z,2.70
2019-04-26T14:07:34.809Z,2.00
2019-04-26T14:08:34.802Z,3.20
2019-04-26T14:09:34.794Z,3.40
2019-04-26T14:10:34.785Z,3.20
2019-04-26T14:11:34.762Z,2.10
2019-04-26T14:12:34.772Z,2.50
2019-04-26T14:13:34.735Z,2.10
2019-04-26T14:14:35.285Z,3.90
2019-04-26T14:15:34.716Z,3.10
2019-04-26T14:16:34.702Z,3.30
2019-04-26T14:17:34.712Z,3.30
2019-04-26T14:18:38.856Z,4.10
2019-04-26T14:19:34.663Z,2.30
2019-04-26T14:20:34.651Z,1.80
2019-04-26T14:21:34.926Z,4.10
2019-04-26T14:22:37.011Z,2.50
2019-04-26T14:23:34.614Z,3.60
2019-04-26T14:24:34.602Z,2.50
2019-04-26T14:25:34.592Z,3.00
2019-04-26T14:26:35.368Z,2.00
2019-04-26T14:27:34.585Z,2.10
2019-04-26T14:28:34.560Z,1.70
2019-04-26T14:29:34.543Z,3.00
2019-04-26T14:30:37.381Z,3.60
2019-04-26T14:31:34.521Z,3.50
2019-04-26T14:32:34.509Z,3.50
2019-04-26T14:33:34.509Z,2.50
2019-04-26T14:34:36.181Z,2.70
2019-04-26T14:35:34.473Z,4.30
2019-04-26T14:36:34.462Z,3.80
2019-04-26T14:37:34.449Z,3.20
2019-04-26T14:38:39.541Z,2.30
2019-04-26T14:39:49.235Z,4.20
2019-04-26T14:40:34.491Z,2.60
2019-04-26T14:41:34.483Z,3.10
2019-04-26T14:42:41.999Z,1.80
2019-04-26T14:43:41.073Z,2.00
2019-04-26T14:44:34.371Z,2.60
2019-04-26T14:45:36.424Z,2.90
2019-04-26T14:46:47.851Z,2.40
2019-04-26T14:47:46.447Z,2.90
2019-04-26T14:48:36.273Z,2.40
2019-04-26T14:49:39.643Z,2.70
2019-04-26T14:50:34.308Z,3.00
2019-04-26T14:51:34.302Z,2.00
2019-04-26T14:52:34.287Z,3.40
2019-04-26T14:53:36.439Z,2.90
2019-04-26T14:54:34.286Z,4.60
2019-04-26T14:55:34.259Z,2.60
2019-04-26T14:56:34.252Z,2.80
2019-04-26T14:57:34.236Z,4.20
2019-04-26T14:58:34.225Z,3.50
2019-04-26T14:59:34.229Z,2.30
2019-04-26T15:00:34.202Z,6.30
2019-04-26T15:01:35.301Z,3.20
2019-04-26T15:02:34.183Z,2.20
2019-04-26T15:03:34.167Z,4.30
2019-04-26T15:04:34.194Z,2.90
2019-04-26T15:05:34.145Z,2.30
2019-04-26T15:06:34.138Z,2.20
2019-04-26T15:07:35.065Z,3.80
2019-04-26T15:08:34.325Z,2.60
2019-04-26T15:09:36.386Z,3.00
2019-04-26T15:10:43.764Z,2.10
2019-04-26T15:11:36.083Z,3.70
2019-04-26T15:12:45.909Z,3.00
2019-04-26T15:13:40.252Z,4.50
2019-04-26T15:14:34.096Z,2.40
2019-04-26T15:15:34.665Z,2.30
2019-04-26T15:16:34.058Z,2.40
2019-04-26T15:17:34.035Z,2.60
2019-04-26T15:18:37.062Z,2.30
2019-04-26T15:19:35.229Z,3.00
2019-04-26T15:20:34.052Z,3.10
2019-04-26T15:21:34.416Z,2.00
2019-04-26T15:22:33.984Z,4.10
2019-04-26T15:23:33.987Z,1.60
2019-04-26T15:24:38.234Z,2.70
2019-04-26T15:25:36.634Z,3.10
2019-04-26T15:26:33.963Z,3.70
2019-04-26T15:27:36.232Z,2.80
2019-04-26T15:28:33.932Z,3.30
2019-04-26T15:29:34.536Z,2.00
2019-04-26T15:30:41.768Z,2.80
2019-04-26T15:31:33.918Z,2.90
2019-04-26T15:32:35.234Z,3.70
2019-04-26T15:33:35.891Z,3.40
2019-04-26T15:34:33.874Z,3.90
2019-04-26T15:35:35.771Z,3.00
2019-04-26T15:36:33.871Z,3.00
2019-04-26T15:37:33.846Z,1.90
2019-04-26T15:38:41.126Z,2.60
2019-04-26T15:39:33.825Z,2.30
2019-04-26T15:40:35.161Z,3.10
2019-04-26T15:41:33.841Z,2.60
2019-04-26T15:42:33.813Z,2.80
2019-04-26T15:43:33.781Z,3.90
2019-04-26T15:44:33.771Z,4.00
2019-04-26T15:45:38.654Z,3.00
2019-04-26T15:46:33.752Z,3.50
2019-04-26T15:47:34.408Z,4.20
2019-04-26T15:48:33.729Z,3.20
2019-04-26T15:49:36.543Z,3.20
2019-04-26T15:50:33.708Z,2.70
2019-04-26T15:51:33.699Z,3.40
2019-04-26T15:52:34.010Z,3.60
2019-04-26T15:53:33.681Z,2.30
2019-04-26T15:54:33.672Z,3.00
2019-04-26T15:55:39.650Z,2.20
2019-04-26T15:56:33.655Z,2.60
2019-04-26T15:57:34.696Z,3.90
2019-04-26T15:58:33.640Z,4.70
2019-04-26T15:59:33.631Z,1.70
2019-04-26T16:00:40.474Z,2.80
2019-04-26T16:01:33.630Z,3.40
2019-04-26T16:02:33.620Z,2.80
2019-04-26T16:03:36.731Z,2.60
2019-04-26T16:04:33.592Z,2.80
2019-04-26T16:05:33.582Z,4.00
2019-04-26T16:06:37.326Z,3.00
2019-04-26T16:07:34.534Z,2.10
2019-04-26T16:08:42.422Z,4.60
2019-04-26T16:09:33.551Z,4.60
2019-04-26T16:10:36.804Z,2.50
2019-04-26T16:11:33.542Z,5.00
2019-04-26T16:12:35.205Z,3.70
2019-04-26T16:13:33.635Z,2.30
2019-04-26T16:14:36.633Z,5.10
2019-04-26T16:15:33.784Z,3.10
2019-04-26T16:16:34.668Z,2.40
2019-04-26T16:17:36.212Z,2.80
2019-04-26T16:18:33.615Z,4.60
2019-04-26T16:19:33.610Z,1.70
2019-04-26T16:20:38.098Z,2.90
2019-04-26T16:21:33.541Z,4.10
2019-04-26T16:22:34.411Z,3.20
2019-04-26T16:23:41.200Z,3.10
2019-04-26T16:24:40.912Z,2.90
2019-04-26T16:25:34.468Z,2.70
2019-04-26T16:26:33.442Z,3.40
2019-04-26T16:27:34.564Z,2.70
2019-04-26T16:28:33.425Z,3.90
2019-04-26T16:29:33.428Z,3.50
2019-04-26T16:30:37.424Z,3.00
2019-04-26T16:31:34.273Z,2.50
2019-04-26T16:32:34.593Z,3.80
2019-04-26T16:33:33.794Z,2.20
2019-04-26T16:34:33.374Z,2.40
2019-04-26T16:35:33.351Z,3.70
2019-04-26T16:36:36.487Z,2.70
2019-04-26T16:37:35.190Z,4.00
2019-04-26T16:38:33.330Z,3.00
2019-04-26T16:39:39.114Z,3.50
2019-04-26T16:40:33.301Z,4.80
2019-04-26T16:41:37.749Z,4.60
2019-04-26T16:42:33.282Z,3.20
2019-04-26T16:43:40.020Z,2.60
2019-04-26T16:44:33.562Z,3.00
2019-04-26T16:45:37.174Z,3.60
2019-04-26T16:46:33.424Z,3.20
2019-04-26T16:47:35.422Z,3.30
2019-04-26T16:48:33.218Z,4.90
2019-04-26T16:49:41.812Z,2.80
2019-04-26T16:50:37.219Z,3.60
2019-04-26T16:51:34.017Z,2.70
2019-04-26T16:52:33.691Z,3.10
2019-04-26T16:53:45.863Z,4.40
2019-04-26T16:54:34.312Z,3.80
2019-04-26T16:56:35.604Z,3.40
2019-04-26T16:57:33.892Z,2.90
2019-04-26T16:58:38.161Z,3.10
2019-04-26T16:59:33.105Z,3.30
2019-04-26T17:00:33.601Z,2.60
2019-04-26T17:00:50.202Z,3.20
2019-04-26T17:01:33.496Z,2.10
2019-04-26T17:02:36.468Z,2.70
2019-04-26T17:03:38.043Z,2.90
2019-04-26T17:04:36.208Z,2.00
2019-04-26T17:05:47.172Z,3.30
2019-04-26T17:06:33.046Z,4.00
2019-04-26T17:07:36.889Z,4.40
2019-04-26T17:08:33.013Z,4.20
2019-04-26T17:09:54.855Z,4.80
2019-04-26T17:10:32.989Z,5.20
2019-04-26T17:11:35.022Z,3.40
2019-04-26T17:12:33.177Z,3.60
2019-04-26T17:13:34.972Z,3.60
2019-04-26T17:14:34.131Z,4.30
2019-04-26T17:15:34.590Z,3.00
2019-04-26T17:16:36.920Z,2.40
2019-04-26T17:17:33.198Z,3.20
2019-04-26T17:18:32.889Z,4.00
2019-04-26T17:19:35.845Z,4.60
2019-04-26T17:20:33.961Z,3.70
2019-04-26T17:21:34.737Z,3.40
2019-04-26T17:22:42.604Z,3.80
2019-04-26T17:23:33.385Z,5.60
2019-04-26T17:24:32.812Z,3.80
2019-04-26T17:25:32.796Z,5.00
2019-04-26T17:26:35.501Z,4.20
2019-04-26T17:27:33.094Z,5.30
2019-04-26T17:28:32.758Z,3.70
2019-04-26T17:29:33.459Z,2.90
2019-04-26T17:30:40.769Z,2.40
2019-04-26T17:31:33.639Z,2.90
2019-04-26T17:32:34.972Z,3.20
2019-04-26T17:33:32.753Z,4.10
2019-04-26T17:34:33.645Z,3.50
2019-04-26T17:35:32.846Z,3.30
2019-04-26T17:36:34.452Z,5.50
2019-04-26T17:37:32.634Z,4.90
2019-04-26T17:38:35.158Z,3.60
2019-04-26T17:39:32.602Z,5.40
2019-04-26T17:40:36.461Z,5.30
2019-04-26T17:41:33.308Z,5.20
2019-04-26T17:42:36.464Z,3.90
2019-04-26T17:43:32.567Z,5.90
2019-04-26T17:44:34.065Z,3.20
2019-04-26T17:45:32.522Z,3.10
2019-04-26T17:46:32.754Z,2.40
2019-04-26T17:47:36.375Z,4.60
2019-04-26T17:48:33.699Z,2.90
2019-04-26T17:49:34.450Z,3.40
2019-04-26T17:50:35.318Z,5.10
2019-04-26T17:51:41.539Z,2.70
2019-04-26T17:52:36.149Z,2.70
2019-04-26T17:53:33.723Z,2.90
2019-04-26T17:54:45.980Z,3.50
2019-04-26T17:55:33.677Z,4.10
2019-04-26T17:56:34.854Z,4.50
2019-04-26T17:57:36.735Z,4.80
2019-04-26T17:58:34.390Z,3.20
2019-04-26T17:59:35.856Z,4.30
2019-04-26T18:00:45.356Z,4.20
2019-04-26T18:01:44.382Z,3.50
2019-04-26T18:02:42.174Z,3.30
2019-04-26T18:03:32.634Z,4.60
2019-04-26T18:04:36.871Z,2.90
2019-04-26T18:05:45.095Z,4.10
2019-04-26T18:06:32.201Z,2.50
2019-04-26T18:07:41.403Z,2.70
2019-04-26T18:08:40.624Z,3.80
2019-04-26T18:09:41.403Z,3.90
2019-04-26T18:10:35.487Z,3.60
2019-04-26T18:11:32.984Z,2.70
2019-04-26T18:12:38.429Z,3.40
2019-04-26T18:13:32.205Z,3.80
2019-04-26T18:14:32.197Z,4.20
2019-04-26T18:15:33.324Z,3.90
2019-04-26T18:16:32.890Z,3.60
2019-04-26T18:17:32.982Z,3.20
2019-04-26T18:18:32.017Z,3.20
2019-04-26T18:19:33.477Z,2.80
2019-04-26T18:20:33.522Z,4.40
2019-04-26T18:21:33.500Z,3.00
2019-04-26T18:22:34.556Z,5.40
2019-04-26T18:23:33.802Z,3.30
2019-04-26T18:24:34.863Z,3.50
2019-04-26T18:25:31.906Z,4.90
2019-04-26T18:26:32.782Z,4.00
2019-04-26T18:27:35.786Z,4.20
2019-04-26T18:28:31.858Z,3.70
2019-04-26T18:29:33.587Z,3.50
2019-04-26T18:30:32.973Z,3.90
2019-04-26T18:31:33.606Z,3.00
2019-04-26T18:32:33.963Z,4.20
2019-04-26T18:33:32.878Z,2.50
2019-04-26T18:34:40.530Z,4.80
2019-04-26T18:35:31.744Z,4.20
2019-04-26T18:36:33.075Z,2.90
2019-04-26T18:37:36.433Z,3.70
2019-04-26T18:38:31.701Z,4.40
2019-04-26T18:39:33.063Z,2.80
2019-04-26T18:40:35.404Z,3.40
2019-04-26T18:41:31.651Z,4.10
2019-04-26T18:42:33.334Z,4.10
2019-04-26T18:43:32.787Z,4.80
2019-04-26T18:44:36.892Z,4.20
2019-04-26T18:45:31.583Z,5.20
2019-04-26T18:46:31.931Z,6.20
2019-04-26T18:47:31.568Z,3.70
2019-04-26T18:48:35.250Z,4.30
2019-04-26T18:49:32.955Z,4.60
2019-04-26T18:50:32.783Z,3.30
2019-04-26T18:51:31.480Z,4.30
2019-04-26T18:52:32.974Z,5.20
2019-04-26T18:53:36.605Z,3.90
2019-04-26T18:54:32.872Z,3.50
2019-04-26T18:55:34.313Z,3.90
2019-04-26T18:56:36.997Z,5.40
2019-04-26T18:57:31.383Z,4.10
2019-04-26T18:58:34.734Z,4.40
2019-04-26T18:59:31.345Z,3.90
2019-04-26T19:00:31.329Z,3.90
2019-04-26T19:01:34.725Z,3.70
2019-04-26T19:02:31.292Z,5.00
2019-04-26T19:03:31.292Z,4.80
2019-04-26T19:04:31.257Z,5.00
2019-04-26T19:05:31.241Z,4.90
2019-04-26T19:06:33.555Z,4.50
2019-04-26T19:07:32.626Z,5.80
2019-04-26T19:08:43.867Z,5.80
2019-04-26T19:09:33.910Z,6.50
2019-04-26T19:10:34.103Z,5.50
2019-04-26T19:11:32.390Z,6.40
2019-04-26T19:12:32.520Z,4.40
2019-04-26T19:13:36.558Z,4.50
2019-04-26T19:14:31.745Z,5.90
2019-04-26T19:15:33.630Z,4.20
2019-04-26T19:16:31.941Z,5.20
2019-04-26T19:17:31.789Z,4.90
2019-04-26T19:18:33.684Z,4.30
2019-04-26T19:19:31.479Z,4.30
2019-04-26T19:20:32.316Z,4.60
2019-04-26T19:21:32.324Z,4.80
2019-04-26T19:22:32.216Z,5.00
2019-04-26T19:23:32.062Z,5.50
2019-04-26T19:24:30.908Z,5.20
2019-04-26T19:25:34.472Z,5.70
2019-04-26T19:26:34.887Z,5.20
2019-04-26T19:27:30.849Z,3.90
2019-04-26T19:28:30.834Z,5.00
2019-04-26T19:29:34.312Z,5.10
2019-04-26T19:30:30.937Z,4.70
2019-04-26T19:31:30.783Z,4.80
2019-04-26T19:32:35.196Z,4.90
2019-04-26T19:33:31.380Z,5.80
2019-04-26T19:34:31.355Z,4.60
2019-04-26T19:35:30.715Z,5.20
2019-04-26T19:36:30.703Z,4.90
2019-04-26T19:37:36.756Z,4.80
2019-04-26T19:38:30.652Z,4.90
2019-04-26T19:39:33.746Z,5.60
2019-04-26T19:40:30.614Z,5.90
2019-04-26T19:41:31.507Z,5.70
2019-04-26T19:42:30.962Z,5.20
2019-04-26T19:43:34.672Z,9.40
2019-04-26T19:44:31.612Z,5.90
2019-04-26T19:45:31.302Z,6.70
2019-04-26T19:46:31.592Z,7.80
2019-04-26T19:47:30.486Z,6.40
2019-04-26T19:48:31.481Z,6.60
2019-04-26T19:49:33.264Z,6.40
2019-04-26T19:50:30.434Z,6.10
2019-04-26T19:51:30.462Z,6.70
2019-04-26T19:52:33.767Z,7.40
2019-04-26T19:53:30.377Z,7.50
2019-04-26T19:54:35.596Z,6.80
2019-04-26T19:55:31.762Z,7.30
2019-04-26T19:56:31.479Z,7.10
2019-04-26T19:57:33.397Z,8.70
2019-04-26T19:58:31.976Z,7.60
2019-04-26T19:59:33.048Z,7.60
2019-04-26T20:00:32.027Z,7.50
2019-04-26T20:01:30.231Z,8.50
2019-04-26T20:02:35.846Z,8.30
2019-04-26T20:03:30.192Z,7.40
2019-04-26T20:04:33.781Z,8.40
2019-04-26T20:05:31.909Z,8.20
2019-04-26T20:06:30.135Z,8.40
2019-04-26T20:07:30.117Z,9.00
2019-04-26T20:08:30.113Z,8.40
2019-04-26T20:09:31.809Z,9.80
2019-04-26T20:10:30.062Z,7.50
2019-04-26T20:11:31.582Z,9.70
2019-04-26T20:12:35.433Z,8.20
2019-04-26T20:13:31.671Z,9.50
2019-04-26T20:14:43.356Z,8.30
2019-04-26T20:15:31.665Z,8.00
2019-04-26T20:16:29.949Z,8.80
2019-04-26T20:17:29.929Z,8.60
2019-04-26T20:18:34.437Z,9.20
2019-04-26T20:19:35.145Z,8.30
2019-04-26T20:20:34.553Z,10.00
2019-04-26T20:21:32.107Z,8.90
2019-04-26T20:22:30.575Z,8.60
2019-04-26T20:23:33.617Z,8.60
2019-04-26T20:24:29.813Z,9.50
2019-04-26T20:25:30.236Z,9.20
2019-04-26T20:26:31.433Z,9.60
2019-04-26T20:27:29.738Z,8.90
2019-04-26T20:28:33.640Z,10.80
2019-04-26T20:29:29.721Z,8.70
2019-04-26T20:30:29.685Z,9.90
2019-04-26T20:31:29.661Z,8.50
2019-04-26T20:32:29.643Z,9.50
2019-04-26T20:33:31.199Z,8.60
2019-04-26T20:34:29.609Z,8.80
2019-04-26T20:35:29.605Z,9.50
2019-04-26T20:36:29.567Z,9.50
2019-04-26T20:37:29.559Z,10.90
2019-04-26T20:38:29.528Z,9.70
2019-04-26T20:39:29.510Z,10.10
2019-04-26T20:40:29.510Z,9.60
2019-04-26T20:41:29.621Z,10.20
2019-04-26T20:42:29.453Z,11.40
2019-04-26T20:43:29.436Z,11.10
2019-04-26T20:44:47.340Z,11.70
2019-04-26T20:45:39.753Z,10.10
2019-04-26T20:46:29.740Z,10.00
2019-04-26T20:47:29.354Z,10.80
2019-04-26T20:48:30.030Z,11.50
2019-04-26T20:49:29.322Z,11.80
2019-04-26T20:50:33.490Z,12.00
2019-04-26T20:51:29.315Z,11.60
2019-04-26T20:52:29.257Z,13.60
2019-04-26T20:53:30.882Z,11.40
2019-04-26T20:54:29.226Z,13.10
2019-04-26T20:55:30.723Z,12.30
2019-04-26T20:56:29.181Z,12.50
2019-04-26T20:57:31.292Z,12.70
2019-04-26T20:58:29.144Z,11.50
2019-04-26T20:59:29.123Z,13.50
2019-04-26T21:00:29.119Z,11.40
2019-04-26T21:01:29.083Z,12.20
2019-04-26T21:02:29.087Z,12.30
2019-04-26T21:03:29.046Z,12.30
2019-04-26T21:04:38.036Z,11.20
2019-04-26T21:05:29.006Z,11.10
2019-04-26T21:06:29.359Z,11.00
2019-04-26T21:07:28.969Z,11.50
2019-04-26T21:08:28.964Z,11.80
2019-04-26T21:09:28.926Z,11.90
2019-04-26T21:10:28.910Z,12.40
2019-04-26T21:11:30.266Z,11.30
2019-04-26T21:12:28.869Z,12.30
2019-04-26T21:13:30.523Z,11.20
2019-04-26T21:14:28.829Z,11.80
2019-04-26T21:15:28.809Z,11.60